Miami, Florida
Traffic Map
Current Weather Conditions
Miami, Florida
Overcast Light Rain
Overcast
27°
Feels Like: 31°
Wind Chill: 27° Ceiling: 3500
Heat Index: 31° Visibility: 10mi
Dew Point: 24° Wind: 17mph
Humidity: 85% Direction: 160° (SSE)
Pressure: 30.02in Gusts: 28mph
Raw Report DataKMIA 301553Z 16015G24KT 10SM -RA FEW019 SCT029 BKN035 OVC200 27/24 A3002 RMK AO2 RAB47 SLP166 TCU DSNT W-NW P0000 T02720244 $
Traffic Incident Summary
Active as of:
Severity:
Category:
InformationThere was an issue retrieving the traffic information for this location. Please try a different location or try again shortly.
Advertisements
Track Severe Weather on mobile